sensor_id;sensor_type;location;lat;lon;timestamp;temperature;humidity
25468;DHT22;13384;24.794;110.498;2023-06-26T00:02:06;26.00;99.90
25468;DHT22;13384;24.794;110.498;2023-06-26T00:04:37;26.00;99.90
25468;DHT22;13384;24.794;110.498;2023-06-26T00:07:09;26.00;99.90
25468;DHT22;13384;24.794;110.498;2023-06-26T00:09:41;26.00;99.90
25468;DHT22;13384;24.794;110.498;2023-06-26T00:12:12;26.10;99.90
25468;DHT22;13384;24.794;110.498;2023-06-26T00:14:43;26.20;99.90
25468;DHT22;13384;24.794;110.498;2023-06-26T00:17:15;26.30;99.90
25468;DHT22;13384;24.794;110.498;2023-06-26T00:19:47;26.30;99.90
25468;DHT22;13384;24.794;110.498;2023-06-26T00:22:18;26.30;99.90
25468;DHT22;13384;24.794;110.498;2023-06-26T00:24:50;26.40;99.90
25468;DHT22;13384;24.794;110.498;2023-06-26T00:27:21;26.40;99.90
25468;DHT22;13384;24.794;110.498;2023-06-26T00:29:53;26.40;99.90
25468;DHT22;13384;24.794;110.498;2023-06-26T00:32:25;26.40;99.90
25468;DHT22;13384;24.794;110.498;2023-06-26T00:34:56;26.50;99.90
25468;DHT22;13384;24.794;110.498;2023-06-26T00:37:28;26.60;99.90
25468;DHT22;13384;24.794;110.498;2023-06-26T00:40:00;26.60;99.90
25468;DHT22;13384;24.794;110.498;2023-06-26T00:42:31;26.60;99.90
25468;DHT22;13384;24.794;110.498;2023-06-26T00:45:02;26.60;99.90
25468;DHT22;13384;24.794;110.498;2023-06-26T00:47:34;26.70;99.90
25468;DHT22;13384;24.794;110.498;2023-06-26T00:50:06;26.80;99.90
25468;DHT22;13384;24.794;110.498;2023-06-26T00:52:38;26.80;99.90
25468;DHT22;13384;24.794;110.498;2023-06-26T00:55:10;26.70;99.90
25468;DHT22;13384;24.794;110.498;2023-06-26T00:57:44;26.60;99.90
25468;DHT22;13384;24.794;110.498;2023-06-26T01:00:16;26.60;99.90
25468;DHT22;13384;24.794;110.498;2023-06-26T01:02:48;26.60;99.90
25468;DHT22;13384;24.794;110.498;2023-06-26T01:05:21;26.60;99.90
25468;DHT22;13384;24.794;110.498;2023-06-26T01:08:14;26.70;99.90
25468;DHT22;13384;24.794;110.498;2023-06-26T01:10:46;26.80;99.90
25468;DHT22;13384;24.794;110.498;2023-06-26T01:13:18;26.80;99.90
25468;DHT22;13384;24.794;110.498;2023-06-26T01:15:53;26.80;99.90
25468;DHT22;13384;24.794;110.498;2023-06-26T01:18:26;26.80;99.90
25468;DHT22;13384;24.794;110.498;2023-06-26T01:21:12;26.90;99.90
25468;DHT22;13384;24.794;110.498;2023-06-26T01:24:29;26.90;99.90
25468;DHT22;13384;24.794;110.498;2023-06-26T01:27:00;26.90;99.90
25468;DHT22;13384;24.794;110.498;2023-06-26T01:29:33;27.00;99.90
25468;DHT22;13384;24.794;110.498;2023-06-26T01:32:08;27.00;99.90
25468;DHT22;13384;24.794;110.498;2023-06-26T01:34:40;27.00;99.90
25468;DHT22;13384;24.794;110.498;2023-06-26T01:37:12;27.10;99.90
25468;DHT22;13384;24.794;110.498;2023-06-26T01:39:44;27.10;99.90
25468;DHT22;13384;24.794;110.498;2023-06-26T01:42:16;27.00;99.90
25468;DHT22;13384;24.794;110.498;2023-06-26T01:44:48;27.10;99.90
25468;DHT22;13384;24.794;110.498;2023-06-26T01:47:23;27.10;99.90
25468;DHT22;13384;24.794;110.498;2023-06-26T01:53:12;27.10;99.90
25468;DHT22;13384;24.794;110.498;2023-06-26T01:55:47;27.30;99.90
25468;DHT22;13384;24.794;110.498;2023-06-26T01:58:23;27.40;99.90
25468;DHT22;13384;24.794;110.498;2023-06-26T02:00:55;27.30;99.90
25468;DHT22;13384;24.794;110.498;2023-06-26T02:03:26;27.30;99.90
25468;DHT22;13384;24.794;110.498;2023-06-26T02:06:02;27.50;99.90
25468;DHT22;13384;24.794;110.498;2023-06-26T02:08:33;27.40;99.90
25468;DHT22;13384;24.794;110.498;2023-06-26T02:11:05;27.40;99.90
25468;DHT22;13384;24.794;110.498;2023-06-26T02:13:36;27.40;99.90
25468;DHT22;13384;24.794;110.498;2023-06-26T02:16:08;27.60;99.90
25468;DHT22;13384;24.794;110.498;2023-06-26T02:18:39;27.70;99.90
25468;DHT22;13384;24.794;110.498;2023-06-26T02:21:13;27.50;99.90
25468;DHT22;13384;24.794;110.498;2023-06-26T02:23:44;27.60;99.90
25468;DHT22;13384;24.794;110.498;2023-06-26T02:26:16;27.80;99.90
25468;DHT22;13384;24.794;110.498;2023-06-26T02:28:47;27.90;99.90
25468;DHT22;13384;24.794;110.498;2023-06-26T02:31:18;28.00;99.90
25468;DHT22;13384;24.794;110.498;2023-06-26T02:33:50;28.10;99.90
25468;DHT22;13384;24.794;110.498;2023-06-26T02:36:22;28.10;99.90
25468;DHT22;13384;24.794;110.498;2023-06-26T02:38:53;28.00;99.90
25468;DHT22;13384;24.794;110.498;2023-06-26T02:41:24;28.00;99.90
25468;DHT22;13384;24.794;110.498;2023-06-26T02:43:56;28.00;99.90
25468;DHT22;13384;24.794;110.498;2023-06-26T02:46:28;28.00;99.90
25468;DHT22;13384;24.794;110.498;2023-06-26T02:49:00;28.10;99.90
25468;DHT22;13384;24.794;110.498;2023-06-26T02:51:32;28.30;99.90
25468;DHT22;13384;24.794;110.498;2023-06-26T02:54:11;28.20;99.90
25468;DHT22;13384;24.794;110.498;2023-06-26T02:56:46;28.50;99.90
25468;DHT22;13384;24.794;110.498;2023-06-26T02:59:22;28.50;99.90
25468;DHT22;13384;24.794;110.498;2023-06-26T03:01:55;28.60;99.90
25468;DHT22;13384;24.794;110.498;2023-06-26T03:04:34;28.40;99.90
25468;DHT22;13384;24.794;110.498;2023-06-26T03:07:11;28.40;99.90
25468;DHT22;13384;24.794;110.498;2023-06-26T03:09:43;28.60;99.90
25468;DHT22;13384;24.794;110.498;2023-06-26T03:12:15;28.60;99.90
25468;DHT22;13384;24.794;110.498;2023-06-26T03:14:46;28.60;99.90
25468;DHT22;13384;24.794;110.498;2023-06-26T03:17:18;28.60;99.90
25468;DHT22;13384;24.794;110.498;2023-06-26T03:19:56;28.60;99.90
25468;DHT22;13384;24.794;110.498;2023-06-26T03:22:40;28.60;99.90
25468;DHT22;13384;24.794;110.498;2023-06-26T03:25:12;28.70;99.90
25468;DHT22;13384;24.794;110.498;2023-06-26T03:27:44;28.60;99.90
25468;DHT22;13384;24.794;110.498;2023-06-26T03:30:27;28.80;99.90
25468;DHT22;13384;24.794;110.498;2023-06-26T03:32:59;28.90;99.90
25468;DHT22;13384;24.794;110.498;2023-06-26T03:35:31;29.00;99.90
25468;DHT22;13384;24.794;110.498;2023-06-26T03:38:04;29.00;99.90
25468;DHT22;13384;24.794;110.498;2023-06-26T03:40:35;28.70;99.90
25468;DHT22;13384;24.794;110.498;2023-06-26T03:43:08;29.10;99.90
25468;DHT22;13384;24.794;110.498;2023-06-26T03:45:47;29.20;99.90
25468;DHT22;13384;24.794;110.498;2023-06-26T03:48:18;29.30;99.90
25468;DHT22;13384;24.794;110.498;2023-06-26T03:50:50;29.70;99.90
25468;DHT22;13384;24.794;110.498;2023-06-26T03:53:23;29.50;99.90
25468;DHT22;13384;24.794;110.498;2023-06-26T03:55:54;29.30;99.90
25468;DHT22;13384;24.794;110.498;2023-06-26T03:58:25;29.40;99.90
25468;DHT22;13384;24.794;110.498;2023-06-26T04:00:57;29.20;99.90
25468;DHT22;13384;24.794;110.498;2023-06-26T04:03:29;29.10;99.90
25468;DHT22;13384;24.794;110.498;2023-06-26T04:06:01;29.10;99.90
25468;DHT22;13384;24.794;110.498;2023-06-26T04:08:32;29.00;99.90
25468;DHT22;13384;24.794;110.498;2023-06-26T04:11:03;29.10;99.90
25468;DHT22;13384;24.794;110.498;2023-06-26T04:13:47;29.00;99.90
25468;DHT22;13384;24.794;110.498;2023-06-26T04:16:22;29.00;99.90
25468;DHT22;13384;24.794;110.498;2023-06-26T04:18:55;29.10;99.90
25468;DHT22;13384;24.794;110.498;2023-06-26T04:21:27;29.20;99.90
25468;DHT22;13384;24.794;110.498;2023-06-26T04:23:58;29.30;99.90
25468;DHT22;13384;24.794;110.498;2023-06-26T04:26:30;29.70;99.90
25468;DHT22;13384;24.794;110.498;2023-06-26T04:29:07;29.70;99.90
25468;DHT22;13384;24.794;110.498;2023-06-26T04:31:39;29.60;99.90
25468;DHT22;13384;24.794;110.498;2023-06-26T04:34:10;29.70;99.90
25468;DHT22;13384;24.794;110.498;2023-06-26T04:36:42;29.70;99.90
25468;DHT22;13384;24.794;110.498;2023-06-26T04:39:18;29.80;99.90
25468;DHT22;13384;24.794;110.498;2023-06-26T04:41:49;29.70;99.90
25468;DHT22;13384;24.794;110.498;2023-06-26T04:44:33;29.50;99.90
25468;DHT22;13384;24.794;110.498;2023-06-26T04:47:04;29.50;99.90
25468;DHT22;13384;24.794;110.498;2023-06-26T04:49:36;29.30;99.90
25468;DHT22;13384;24.794;110.498;2023-06-26T04:52:08;29.00;99.90
25468;DHT22;13384;24.794;110.498;2023-06-26T04:54:43;29.00;99.90
25468;DHT22;13384;24.794;110.498;2023-06-26T04:57:15;28.80;99.90
25468;DHT22;13384;24.794;110.498;2023-06-26T04:59:48;28.70;99.90
25468;DHT22;13384;24.794;110.498;2023-06-26T05:02:21;28.60;99.90
25468;DHT22;13384;24.794;110.498;2023-06-26T05:04:53;28.50;99.90
25468;DHT22;13384;24.794;110.498;2023-06-26T05:07:24;28.30;99.90
25468;DHT22;13384;24.794;110.498;2023-06-26T05:09:56;28.20;99.90
25468;DHT22;13384;24.794;110.498;2023-06-26T05:12:27;28.10;99.90
25468;DHT22;13384;24.794;110.498;2023-06-26T05:14:58;27.90;99.90
25468;DHT22;13384;24.794;110.498;2023-06-26T05:17:29;27.80;99.90
25468;DHT22;13384;24.794;110.498;2023-06-26T05:20:01;27.70;99.90
25468;DHT22;13384;24.794;110.498;2023-06-26T05:22:34;27.40;99.90
25468;DHT22;13384;24.794;110.498;2023-06-26T05:25:09;27.50;99.90
25468;DHT22;13384;24.794;110.498;2023-06-26T05:27:42;27.60;99.90
25468;DHT22;13384;24.794;110.498;2023-06-26T05:30:14;27.60;99.90
25468;DHT22;13384;24.794;110.498;2023-06-26T05:32:47;27.60;99.90
25468;DHT22;13384;24.794;110.498;2023-06-26T05:35:20;27.60;99.90
25468;DHT22;13384;24.794;110.498;2023-06-26T05:37:56;27.50;99.90
25468;DHT22;13384;24.794;110.498;2023-06-26T05:40:27;27.30;99.90
25468;DHT22;13384;24.794;110.498;2023-06-26T05:42:59;27.10;99.90
25468;DHT22;13384;24.794;110.498;2023-06-26T05:45:31;27.10;99.90
25468;DHT22;13384;24.794;110.498;2023-06-26T05:48:02;27.10;99.90
25468;DHT22;13384;24.794;110.498;2023-06-26T05:50:35;27.00;99.90
25468;DHT22;13384;24.794;110.498;2023-06-26T05:53:13;27.00;99.90
25468;DHT22;13384;24.794;110.498;2023-06-26T05:55:58;26.90;99.90
25468;DHT22;13384;24.794;110.498;2023-06-26T05:58:30;27.10;99.90
25468;DHT22;13384;24.794;110.498;2023-06-26T06:01:02;27.10;99.90
25468;DHT22;13384;24.794;110.498;2023-06-26T06:03:33;26.90;99.90
25468;DHT22;13384;24.794;110.498;2023-06-26T06:06:05;27.00;99.90
25468;DHT22;13384;24.794;110.498;2023-06-26T06:08:38;27.00;99.90
25468;DHT22;13384;24.794;110.498;2023-06-26T06:11:11;26.90;99.90
25468;DHT22;13384;24.794;110.498;2023-06-26T06:13:42;26.80;99.90
25468;DHT22;13384;24.794;110.498;2023-06-26T06:16:13;26.70;99.90
25468;DHT22;13384;24.794;110.498;2023-06-26T06:18:45;27.00;99.90
25468;DHT22;13384;24.794;110.498;2023-06-26T06:21:36;27.00;99.90
25468;DHT22;13384;24.794;110.498;2023-06-26T06:24:07;26.90;99.90
25468;DHT22;13384;24.794;110.498;2023-06-26T06:26:58;26.70;99.90
25468;DHT22;13384;24.794;110.498;2023-06-26T06:29:42;26.60;99.90
25468;DHT22;13384;24.794;110.498;2023-06-26T06:32:14;26.60;99.90
25468;DHT22;13384;24.794;110.498;2023-06-26T06:35:00;26.60;99.90
25468;DHT22;13384;24.794;110.498;2023-06-26T06:37:39;26.70;99.90
25468;DHT22;13384;24.794;110.498;2023-06-26T06:40:11;26.80;99.90
25468;DHT22;13384;24.794;110.498;2023-06-26T06:42:43;26.70;99.90
25468;DHT22;13384;24.794;110.498;2023-06-26T06:45:14;26.80;99.90
25468;DHT22;13384;24.794;110.498;2023-06-26T06:47:45;26.90;99.90
25468;DHT22;13384;24.794;110.498;2023-06-26T06:50:17;27.00;99.90
25468;DHT22;13384;24.794;110.498;2023-06-26T06:52:48;27.10;99.90
25468;DHT22;13384;24.794;110.498;2023-06-26T06:55:20;27.10;99.90
25468;DHT22;13384;24.794;110.498;2023-06-26T06:57:51;27.20;99.90
25468;DHT22;13384;24.794;110.498;2023-06-26T07:00:23;27.10;99.90
25468;DHT22;13384;24.794;110.498;2023-06-26T07:02:54;27.20;99.90
25468;DHT22;13384;24.794;110.498;2023-06-26T07:05:27;27.30;99.90
25468;DHT22;13384;24.794;110.498;2023-06-26T07:07:59;27.40;99.90
25468;DHT22;13384;24.794;110.498;2023-06-26T07:10:31;27.40;99.90
25468;DHT22;13384;24.794;110.498;2023-06-26T07:13:02;27.60;99.90
25468;DHT22;13384;24.794;110.498;2023-06-26T07:15:34;27.60;99.90
25468;DHT22;13384;24.794;110.498;2023-06-26T07:18:18;27.70;99.90
25468;DHT22;13384;24.794;110.498;2023-06-26T07:20:50;27.70;99.90
25468;DHT22;13384;24.794;110.498;2023-06-26T07:23:21;27.70;99.90
25468;DHT22;13384;24.794;110.498;2023-06-26T07:25:53;27.70;99.90
25468;DHT22;13384;24.794;110.498;2023-06-26T07:28:26;27.80;99.90
25468;DHT22;13384;24.794;110.498;2023-06-26T07:30:59;27.90;99.90
25468;DHT22;13384;24.794;110.498;2023-06-26T07:33:31;27.80;99.90
25468;DHT22;13384;24.794;110.498;2023-06-26T07:36:02;27.80;99.90
25468;DHT22;13384;24.794;110.498;2023-06-26T07:38:34;27.80;99.90
25468;DHT22;13384;24.794;110.498;2023-06-26T07:41:05;27.80;99.90
25468;DHT22;13384;24.794;110.498;2023-06-26T07:43:42;27.80;99.90
25468;DHT22;13384;24.794;110.498;2023-06-26T07:46:14;27.80;99.90
25468;DHT22;13384;24.794;110.498;2023-06-26T07:48:45;27.80;99.90
25468;DHT22;13384;24.794;110.498;2023-06-26T07:51:17;27.70;99.90
25468;DHT22;13384;24.794;110.498;2023-06-26T07:53:48;27.60;99.90
25468;DHT22;13384;24.794;110.498;2023-06-26T07:56:22;27.70;99.90
25468;DHT22;13384;24.794;110.498;2023-06-26T07:58:53;27.70;99.90
25468;DHT22;13384;24.794;110.498;2023-06-26T08:01:25;27.70;99.90
25468;DHT22;13384;24.794;110.498;2023-06-26T08:03:56;27.70;99.90
25468;DHT22;13384;24.794;110.498;2023-06-26T08:06:28;27.70;99.90
25468;DHT22;13384;24.794;110.498;2023-06-26T08:08:59;27.80;99.90
25468;DHT22;13384;24.794;110.498;2023-06-26T08:11:30;27.70;99.90
25468;DHT22;13384;24.794;110.498;2023-06-26T08:14:01;27.80;99.90
25468;DHT22;13384;24.794;110.498;2023-06-26T08:16:33;27.80;99.90
25468;DHT22;13384;24.794;110.498;2023-06-26T08:19:05;27.90;99.90
25468;DHT22;13384;24.794;110.498;2023-06-26T08:21:36;27.80;99.90
25468;DHT22;13384;24.794;110.498;2023-06-26T08:24:08;27.60;99.90
25468;DHT22;13384;24.794;110.498;2023-06-26T08:26:40;27.80;99.90
25468;DHT22;13384;24.794;110.498;2023-06-26T08:29:11;28.00;99.90
25468;DHT22;13384;24.794;110.498;2023-06-26T08:32:03;27.70;99.90
25468;DHT22;13384;24.794;110.498;2023-06-26T08:34:34;27.90;99.90
25468;DHT22;13384;24.794;110.498;2023-06-26T08:37:06;28.00;99.90
25468;DHT22;13384;24.794;110.498;2023-06-26T08:39:41;27.80;99.90
25468;DHT22;13384;24.794;110.498;2023-06-26T08:42:12;28.00;99.90
25468;DHT22;13384;24.794;110.498;2023-06-26T08:44:44;28.10;99.90
25468;DHT22;13384;24.794;110.498;2023-06-26T08:47:34;28.10;99.90
25468;DHT22;13384;24.794;110.498;2023-06-26T08:50:10;28.10;99.90
25468;DHT22;13384;24.794;110.498;2023-06-26T08:55:29;28.00;99.90
25468;DHT22;13384;24.794;110.498;2023-06-26T08:58:02;27.80;99.90
25468;DHT22;13384;24.794;110.498;2023-06-26T09:00:35;28.00;99.90
25468;DHT22;13384;24.794;110.498;2023-06-26T09:03:08;28.00;99.90
25468;DHT22;13384;24.794;110.498;2023-06-26T09:05:40;28.00;99.90
25468;DHT22;13384;24.794;110.498;2023-06-26T09:08:11;28.00;99.90
25468;DHT22;13384;24.794;110.498;2023-06-26T09:10:44;28.10;99.90
25468;DHT22;13384;24.794;110.498;2023-06-26T09:13:16;28.10;99.90
25468;DHT22;13384;24.794;110.498;2023-06-26T09:16:07;28.10;99.90
25468;DHT22;13384;24.794;110.498;2023-06-26T09:18:41;28.00;99.90
25468;DHT22;13384;24.794;110.498;2023-06-26T09:21:13;28.10;99.90
25468;DHT22;13384;24.794;110.498;2023-06-26T09:23:45;28.00;99.90
25468;DHT22;13384;24.794;110.498;2023-06-26T09:26:17;28.10;99.90
25468;DHT22;13384;24.794;110.498;2023-06-26T09:28:49;28.10;99.90
25468;DHT22;13384;24.794;110.498;2023-06-26T09:31:21;28.20;99.90
25468;DHT22;13384;24.794;110.498;2023-06-26T09:34:10;28.20;99.90
25468;DHT22;13384;24.794;110.498;2023-06-26T09:36:42;28.20;99.90
25468;DHT22;13384;24.794;110.498;2023-06-26T09:39:17;28.10;99.90
25468;DHT22;13384;24.794;110.498;2023-06-26T09:41:49;28.20;99.90
25468;DHT22;13384;24.794;110.498;2023-06-26T09:44:35;28.10;99.90
25468;DHT22;13384;24.794;110.498;2023-06-26T09:47:07;27.90;99.90
25468;DHT22;13384;24.794;110.498;2023-06-26T09:49:43;27.90;99.90
25468;DHT22;13384;24.794;110.498;2023-06-26T09:52:16;27.90;99.90
25468;DHT22;13384;24.794;110.498;2023-06-26T09:54:50;27.90;99.90
25468;DHT22;13384;24.794;110.498;2023-06-26T09:57:22;27.80;99.90
25468;DHT22;13384;24.794;110.498;2023-06-26T09:59:54;27.80;99.90
25468;DHT22;13384;24.794;110.498;2023-06-26T10:02:25;27.80;99.90
25468;DHT22;13384;24.794;110.498;2023-06-26T10:04:57;28.00;99.90
25468;DHT22;13384;24.794;110.498;2023-06-26T10:07:29;27.90;99.90
25468;DHT22;13384;24.794;110.498;2023-06-26T10:10:02;27.90;99.90
25468;DHT22;13384;24.794;110.498;2023-06-26T10:12:34;27.80;99.90
25468;DHT22;13384;24.794;110.498;2023-06-26T10:15:07;27.70;99.90
25468;DHT22;13384;24.794;110.498;2023-06-26T10:17:43;27.70;99.90
25468;DHT22;13384;24.794;110.498;2023-06-26T10:20:21;27.60;99.90
25468;DHT22;13384;24.794;110.498;2023-06-26T10:22:56;27.50;99.90
25468;DHT22;13384;24.794;110.498;2023-06-26T10:25:31;27.40;99.90
25468;DHT22;13384;24.794;110.498;2023-06-26T10:28:06;27.50;99.90
25468;DHT22;13384;24.794;110.498;2023-06-26T10:30:38;27.50;99.90
25468;DHT22;13384;24.794;110.498;2023-06-26T10:33:10;27.40;99.90
25468;DHT22;13384;24.794;110.498;2023-06-26T10:35:46;27.40;99.90
25468;DHT22;13384;24.794;110.498;2023-06-26T10:38:18;27.30;99.90
25468;DHT22;13384;24.794;110.498;2023-06-26T10:40:51;27.30;99.90
25468;DHT22;13384;24.794;110.498;2023-06-26T10:43:30;27.30;99.90
25468;DHT22;13384;24.794;110.498;2023-06-26T10:46:02;27.30;99.90
25468;DHT22;13384;24.794;110.498;2023-06-26T10:48:56;27.20;99.90
25468;DHT22;13384;24.794;110.498;2023-06-26T10:51:51;27.20;99.90
25468;DHT22;13384;24.794;110.498;2023-06-26T10:54:29;27.20;99.90
25468;DHT22;13384;24.794;110.498;2023-06-26T10:57:23;27.20;99.90
25468;DHT22;13384;24.794;110.498;2023-06-26T11:00:13;27.30;99.90
25468;DHT22;13384;24.794;110.498;2023-06-26T11:02:51;27.40;99.90
25468;DHT22;13384;24.794;110.498;2023-06-26T11:05:33;27.20;99.90
25468;DHT22;13384;24.794;110.498;2023-06-26T11:08:06;27.30;99.90
25468;DHT22;13384;24.794;110.498;2023-06-26T11:10:51;27.30;99.90
25468;DHT22;13384;24.794;110.498;2023-06-26T11:13:23;27.20;99.90
25468;DHT22;13384;24.794;110.498;2023-06-26T11:15:55;27.10;99.90
25468;DHT22;13384;24.794;110.498;2023-06-26T11:18:32;27.10;99.90
25468;DHT22;13384;24.794;110.498;2023-06-26T11:21:12;27.10;99.90
25468;DHT22;13384;24.794;110.498;2023-06-26T11:23:46;27.10;99.90
25468;DHT22;13384;24.794;110.498;2023-06-26T11:26:20;27.00;99.90
25468;DHT22;13384;24.794;110.498;2023-06-26T11:28:55;26.90;99.90
25468;DHT22;13384;24.794;110.498;2023-06-26T11:31:31;26.70;99.90
25468;DHT22;13384;24.794;110.498;2023-06-26T11:34:05;26.70;99.90
25468;DHT22;13384;24.794;110.498;2023-06-26T11:36:50;26.60;99.90
25468;DHT22;13384;24.794;110.498;2023-06-26T11:39:23;26.60;99.90
25468;DHT22;13384;24.794;110.498;2023-06-26T11:41:56;26.60;99.90
25468;DHT22;13384;24.794;110.498;2023-06-26T11:44:31;26.70;99.90
25468;DHT22;13384;24.794;110.498;2023-06-26T11:47:03;26.70;99.90
25468;DHT22;13384;24.794;110.498;2023-06-26T11:49:34;26.70;99.90
25468;DHT22;13384;24.794;110.498;2023-06-26T11:52:19;26.60;99.90
25468;DHT22;13384;24.794;110.498;2023-06-26T11:55:41;26.60;99.90
25468;DHT22;13384;24.794;110.498;2023-06-26T11:58:14;26.60;99.90
25468;DHT22;13384;24.794;110.498;2023-06-26T12:00:48;26.50;99.90
25468;DHT22;13384;24.794;110.498;2023-06-26T12:03:19;26.40;99.90
25468;DHT22;13384;24.794;110.498;2023-06-26T12:05:51;26.40;99.90
25468;DHT22;13384;24.794;110.498;2023-06-26T12:08:23;26.30;99.90
25468;DHT22;13384;24.794;110.498;2023-06-26T12:10:55;26.40;99.90
25468;DHT22;13384;24.794;110.498;2023-06-26T12:13:28;26.50;99.90
25468;DHT22;13384;24.794;110.498;2023-06-26T12:15:59;26.40;99.90
25468;DHT22;13384;24.794;110.498;2023-06-26T12:18:40;26.40;99.90
25468;DHT22;13384;24.794;110.498;2023-06-26T12:24:09;26.40;99.90
25468;DHT22;13384;24.794;110.498;2023-06-26T12:26:46;26.30;99.90
25468;DHT22;13384;24.794;110.498;2023-06-26T12:29:19;26.40;99.90
25468;DHT22;13384;24.794;110.498;2023-06-26T12:32:25;26.40;99.90
25468;DHT22;13384;24.794;110.498;2023-06-26T12:35:01;26.30;99.90
25468;DHT22;13384;24.794;110.498;2023-06-26T12:37:37;26.30;99.90
25468;DHT22;13384;24.794;110.498;2023-06-26T12:40:21;26.20;99.90
25468;DHT22;13384;24.794;110.498;2023-06-26T12:42:56;26.10;99.90
25468;DHT22;13384;24.794;110.498;2023-06-26T12:45:27;26.10;99.90
25468;DHT22;13384;24.794;110.498;2023-06-26T12:48:07;26.10;99.90
25468;DHT22;13384;24.794;110.498;2023-06-26T12:50:48;26.20;99.90
25468;DHT22;13384;24.794;110.498;2023-06-26T12:53:21;26.10;99.90
25468;DHT22;13384;24.794;110.498;2023-06-26T12:55:53;26.00;99.90
25468;DHT22;13384;24.794;110.498;2023-06-26T12:58:27;26.10;99.90
25468;DHT22;13384;24.794;110.498;2023-06-26T13:01:02;26.10;99.90
25468;DHT22;13384;24.794;110.498;2023-06-26T13:03:35;26.00;99.90
25468;DHT22;13384;24.794;110.498;2023-06-26T13:06:06;26.00;99.90
25468;DHT22;13384;24.794;110.498;2023-06-26T13:08:38;26.00;99.90
25468;DHT22;13384;24.794;110.498;2023-06-26T13:11:10;26.00;99.90
25468;DHT22;13384;24.794;110.498;2023-06-26T13:13:55;26.00;99.90
25468;DHT22;13384;24.794;110.498;2023-06-26T13:16:39;26.00;99.90
25468;DHT22;13384;24.794;110.498;2023-06-26T13:19:11;26.00;99.90
25468;DHT22;13384;24.794;110.498;2023-06-26T13:21:43;26.10;99.90
25468;DHT22;13384;24.794;110.498;2023-06-26T13:24:15;26.00;99.90
25468;DHT22;13384;24.794;110.498;2023-06-26T13:26:46;26.00;99.90
25468;DHT22;13384;24.794;110.498;2023-06-26T13:29:18;26.00;99.90
25468;DHT22;13384;24.794;110.498;2023-06-26T13:32:06;26.00;99.90
25468;DHT22;13384;24.794;110.498;2023-06-26T13:34:46;25.90;99.90
25468;DHT22;13384;24.794;110.498;2023-06-26T13:37:20;26.00;99.90
25468;DHT22;13384;24.794;110.498;2023-06-26T13:39:54;26.10;99.90
25468;DHT22;13384;24.794;110.498;2023-06-26T13:42:28;26.00;99.90
25468;DHT22;13384;24.794;110.498;2023-06-26T13:45:11;26.10;99.90
25468;DHT22;13384;24.794;110.498;2023-06-26T13:47:58;26.00;99.90
25468;DHT22;13384;24.794;110.498;2023-06-26T13:50:30;26.00;99.90
25468;DHT22;13384;24.794;110.498;2023-06-26T13:53:21;25.90;99.90
25468;DHT22;13384;24.794;110.498;2023-06-26T13:55:54;26.00;99.90
25468;DHT22;13384;24.794;110.498;2023-06-26T13:58:25;26.00;99.90
25468;DHT22;13384;24.794;110.498;2023-06-26T14:01:09;25.90;99.90
25468;DHT22;13384;24.794;110.498;2023-06-26T14:03:41;25.90;99.90
25468;DHT22;13384;24.794;110.498;2023-06-26T14:06:12;25.80;99.90
25468;DHT22;13384;24.794;110.498;2023-06-26T14:08:44;25.70;99.90
25468;DHT22;13384;24.794;110.498;2023-06-26T14:11:18;25.70;99.90
25468;DHT22;13384;24.794;110.498;2023-06-26T14:13:50;25.70;99.90
25468;DHT22;13384;24.794;110.498;2023-06-26T14:16:21;25.70;99.90
25468;DHT22;13384;24.794;110.498;2023-06-26T14:18:56;25.70;99.90
25468;DHT22;13384;24.794;110.498;2023-06-26T14:21:28;25.70;99.90
25468;DHT22;13384;24.794;110.498;2023-06-26T14:24:00;25.70;99.90
25468;DHT22;13384;24.794;110.498;2023-06-26T14:26:33;25.80;99.90
25468;DHT22;13384;24.794;110.498;2023-06-26T14:29:04;25.80;99.90
25468;DHT22;13384;24.794;110.498;2023-06-26T14:31:38;25.80;99.90
25468;DHT22;13384;24.794;110.498;2023-06-26T14:34:09;25.80;99.90
25468;DHT22;13384;24.794;110.498;2023-06-26T14:36:41;25.90;99.90
25468;DHT22;13384;24.794;110.498;2023-06-26T14:39:20;25.90;99.90
25468;DHT22;13384;24.794;110.498;2023-06-26T14:41:52;25.90;99.90
25468;DHT22;13384;24.794;110.498;2023-06-26T14:44:24;25.80;99.90
25468;DHT22;13384;24.794;110.498;2023-06-26T14:47:00;25.70;99.90
25468;DHT22;13384;24.794;110.498;2023-06-26T14:49:42;25.70;99.90
25468;DHT22;13384;24.794;110.498;2023-06-26T14:52:18;25.80;99.90
25468;DHT22;13384;24.794;110.498;2023-06-26T14:54:50;25.70;99.90
25468;DHT22;13384;24.794;110.498;2023-06-26T14:57:22;25.70;99.90
25468;DHT22;13384;24.794;110.498;2023-06-26T14:59:53;25.80;99.90
25468;DHT22;13384;24.794;110.498;2023-06-26T15:02:37;25.70;99.90
25468;DHT22;13384;24.794;110.498;2023-06-26T15:05:09;25.80;99.90
25468;DHT22;13384;24.794;110.498;2023-06-26T15:07:40;25.80;99.90
25468;DHT22;13384;24.794;110.498;2023-06-26T15:10:12;25.80;99.90
25468;DHT22;13384;24.794;110.498;2023-06-26T15:12:44;25.80;99.90
25468;DHT22;13384;24.794;110.498;2023-06-26T15:15:16;25.80;99.90
25468;DHT22;13384;24.794;110.498;2023-06-26T15:17:48;25.70;99.90
25468;DHT22;13384;24.794;110.498;2023-06-26T15:20:20;25.70;99.90
25468;DHT22;13384;24.794;110.498;2023-06-26T15:23:02;25.80;99.90
25468;DHT22;13384;24.794;110.498;2023-06-26T15:25:34;25.80;99.90
25468;DHT22;13384;24.794;110.498;2023-06-26T15:28:07;25.80;99.90
25468;DHT22;13384;24.794;110.498;2023-06-26T15:30:40;25.90;99.90
25468;DHT22;13384;24.794;110.498;2023-06-26T15:33:13;25.90;99.90
25468;DHT22;13384;24.794;110.498;2023-06-26T15:35:45;25.90;99.90
25468;DHT22;13384;24.794;110.498;2023-06-26T15:38:21;25.80;99.90
25468;DHT22;13384;24.794;110.498;2023-06-26T15:40:52;25.90;99.90
25468;DHT22;13384;24.794;110.498;2023-06-26T15:43:26;25.90;99.90
25468;DHT22;13384;24.794;110.498;2023-06-26T15:45:58;25.90;99.90
25468;DHT22;13384;24.794;110.498;2023-06-26T15:48:29;25.90;99.90
25468;DHT22;13384;24.794;110.498;2023-06-26T15:51:01;25.90;99.90
25468;DHT22;13384;24.794;110.498;2023-06-26T15:53:38;25.90;99.90
25468;DHT22;13384;24.794;110.498;2023-06-26T15:56:12;25.90;99.90